Terminal Aerodrome Forecast
Issued by NWS

Current Version | Previous Version | Graphics & Text | Print | Product List | Glossary On
Versions: 1 2 3 4 5 6 7 8 9 10 11 12 13 14 15 16 17 18 19 20 21
000
FTUS41 KILN 311600 AAC
TAFLCK
TAF AMD
KLCK 311653Z 3117/0112 21014KT P6SM VCSH BKN025
      TEMPO 3117/3118 -SHRA
     FM311800 24013KT P6SM OVC025
     FM312200 32011KT P6SM OVC015
     FM010300 35007KT P6SM OVC007=

USA.gov is the U.S. government's official web portal to all federal, state and local government web resources and services.